Time;durP1;ratioP1;P1;durP2;ratioP2;P2;SDS_P1;SDS_P2;PMS_P1;PMS_P2;Temp;Humidity;BMP_temperature;BMP_pressure;BME280_temperature;BME280_humidity;BME280_pressure;Samples;Min_cycle;Max_cycle;Signal;HPM_P1;HPM_P2
2021/07/13 00:01:23;;;;;;;1.50;1.40;;;25.20;94.90;;;;;;5053526;28;20029;-77
2021/07/13 00:03:51;;;;;;;1.00;1.00;;;25.10;95.20;;;;;;5071427;28;20033;-78
2021/07/13 00:06:17;;;;;;;0.98;0.98;;;25.20;95.30;;;;;;5071111;28;20067;-76
2021/07/13 00:08:43;;;;;;;1.00;1.00;;;25.00;95.60;;;;;;5052994;28;20072;-78
2021/07/13 00:11:08;;;;;;;1.27;1.17;;;25.10;96.00;;;;;;5051511;28;20036;-78
2021/07/13 00:13:35;;;;;;;0.90;0.90;;;25.10;96.10;;;;;;5051554;28;20036;-78
2021/07/13 00:16:01;;;;;;;0.88;0.88;;;25.20;96.50;;;;;;5051246;28;20033;-78
2021/07/13 00:18:27;;;;;;;0.70;0.70;;;25.20;96.50;;;;;;5051173;28;20028;-80
2021/07/13 00:20:54;;;;;;;5.30;1.45;;;25.10;96.80;;;;;;5051435;28;20095;-78
2021/07/13 00:23:19;;;;;;;0.75;0.75;;;25.20;97.00;;;;;;5051238;28;20033;-76
2021/07/13 00:25:45;;;;;;;0.90;0.90;;;25.10;97.10;;;;;;5054665;28;20037;-79
2021/07/13 00:28:11;;;;;;;0.95;0.95;;;25.10;97.80;;;;;;5055162;28;20071;-78
2021/07/13 00:30:37;;;;;;;1.13;1.05;;;25.10;98.00;;;;;;5055423;28;20115;-79
2021/07/13 00:33:02;;;;;;;1.08;1.00;;;25.20;98.10;;;;;;5055171;28;20040;-77
2021/07/13 00:35:28;;;;;;;0.70;0.70;;;25.20;98.10;;;;;;5055109;28;20163;-80
2021/07/13 00:37:54;;;;;;;1.85;1.17;;;24.90;98.50;;;;;;5055220;28;20041;-78
2021/07/13 00:40:21;;;;;;;1.25;1.15;;;24.90;99.00;;;;;;5054717;28;20517;-79
2021/07/13 00:42:49;;;;;;;1.88;1.70;;;24.80;99.20;;;;;;5055084;28;20021;-78
2021/07/13 00:45:15;;;;;;;0.95;0.95;;;24.90;99.10;;;;;;5054900;28;20443;-78
2021/07/13 00:47:41;;;;;;;1.52;1.42;;;24.70;99.20;;;;;;5054854;28;20036;-78
2021/07/13 00:50:08;;;;;;;1.48;1.38;;;24.70;99.70;;;;;;5055242;28;20041;-78
2021/07/13 00:52:34;;;;;;;0.80;0.80;;;24.80;99.30;;;;;;5055119;28;20085;-78
2021/07/13 00:55:01;;;;;;;0.98;0.98;;;24.60;99.00;;;;;;5054550;28;20037;-79
2021/07/13 00:57:26;;;;;;;1.00;1.00;;;24.50;99.90;;;;;;5037339;28;20079;-79
2021/07/13 00:59:52;;;;;;;1.17;1.08;;;24.60;99.70;;;;;;5055200;28;20033;-78
2021/07/13 01:02:19;;;;;;;0.95;0.88;;;24.70;99.40;;;;;;5036923;28;20060;-78
2021/07/13 01:04:58;;;;;;;1.30;1.20;;;24.80;99.20;;;;;;5054579;28;20535;-78
2021/07/13 01:08:01;;;;;;;0.90;0.90;;;24.80;98.90;;;;;;5060349;28;20028;-79
2021/07/13 01:10:55;;;;;;;0.80;0.80;;;24.80;98.30;;;;;;5074617;28;20116;-78
2021/07/13 01:13:35;;;;;;;1.65;1.48;;;24.90;98.60;;;;;;5074527;28;20033;-78
2021/07/13 01:16:10;;;;;;;0.75;0.75;;;24.80;98.90;;;;;;5074402;28;20388;-78
2021/07/13 01:18:46;;;;;;;0.82;0.82;;;24.80;99.10;;;;;;5074698;28;20055;-79
2021/07/13 01:21:32;;;;;;;0.80;0.80;;;24.80;99.30;;;;;;5074310;28;20041;-77
2021/07/13 01:24:16;;;;;;;2.15;1.90;;;24.80;99.80;;;;;;5074063;28;20036;-78
2021/07/13 01:26:49;;;;;;;1.35;1.25;;;24.70;99.90;;;;;;5074309;28;20041;-78
2021/07/13 01:29:18;;;;;;;1.33;1.23;;;24.70;99.70;;;;;;5074493;28;20039;-78
2021/07/13 01:31:47;;;;;;;1.42;1.33;;;24.70;99.90;;;;;;5056630;28;20037;-78
2021/07/13 01:34:18;;;;;;;1.95;1.65;;;24.60;99.90;;;;;;5074306;28;20443;-79
2021/07/13 01:36:48;;;;;;;1.02;0.95;;;24.60;99.80;;;;;;5073046;28;20032;-79
2021/07/13 01:39:15;;;;;;;1.38;1.27;;;24.30;99.90;;;;;;5073793;28;20107;-79
2021/07/13 01:41:45;;;;;;;0.90;0.90;;;23.70;99.90;;;;;;5056253;28;20085;-78
2021/07/13 01:44:13;;;;;;;2.30;2.10;;;24.00;99.90;;;;;;5055824;28;20036;-78
2021/07/13 01:46:40;;;;;;;1.00;1.00;;;24.10;99.90;;;;;;5056021;28;20036;-80
2021/07/13 01:49:07;;;;;;;2.15;1.73;;;24.40;99.90;;;;;;5073850;28;20036;-78
2021/07/13 01:51:34;;;;;;;2.60;1.77;;;24.50;99.90;;;;;;5074236;28;20078;-79
2021/07/13 01:54:10;;;;;;;0.85;0.85;;;24.50;99.90;;;;;;5073664;28;20043;-81
2021/07/13 01:56:39;;;;;;;0.90;0.90;;;24.60;99.90;;;;;;5074047;28;20037;-79
2021/07/13 01:59:06;;;;;;;2.47;1.77;;;24.70;99.90;;;;;;5073696;28;20033;-79
2021/07/13 02:01:33;;;;;;;1.20;1.15;;;24.70;99.90;;;;;;5073428;28;20461;-77
2021/07/13 02:04:03;;;;;;;0.90;0.90;;;24.60;99.90;;;;;;5074140;28;20112;-79
2021/07/13 02:06:29;;;;;;;1.15;1.10;;;24.20;99.90;;;;;;5073940;28;20172;-77
2021/07/13 02:08:58;;;;;;;1.20;1.10;;;23.80;99.90;;;;;;5056701;28;20031;-78
2021/07/13 02:11:27;;;;;;;1.38;1.27;;;23.60;99.90;;;;;;5035286;28;20029;-77
2021/07/13 02:13:53;;;;;;;1.23;1.13;;;23.90;99.90;;;;;;5053423;28;20075;-78
2021/07/13 02:16:19;;;;;;;9.07;2.65;;;24.20;99.90;;;;;;5053496;28;20056;-78
2021/07/13 02:18:49;;;;;;;1.50;1.40;;;23.80;99.90;;;;;;5053929;28;20084;-78
2021/07/13 02:21:16;;;;;;;2.58;1.80;;;23.60;99.90;;;;;;5053555;28;20115;-79
2021/07/13 02:23:43;;;;;;;1.35;1.25;;;23.70;99.90;;;;;;5053626;28;20475;-78
2021/07/13 02:26:15;;;;;;;1.63;1.52;;;24.10;99.90;;;;;;5053182;28;20045;-76
2021/07/13 02:28:44;;;;;;;1.40;1.27;;;24.20;99.90;;;;;;5035191;28;20389;-77
2021/07/13 02:31:35;;;;;;;1.73;1.27;;;24.30;99.90;;;;;;5053025;28;20040;-78
2021/07/13 02:34:09;;;;;;;2.80;1.38;;;24.30;99.90;;;;;;5053163;28;20068;-78
2021/07/13 02:36:38;;;;;;;1.42;1.33;;;24.40;99.90;;;;;;5053556;28;20029;-78
2021/07/13 02:39:08;;;;;;;1.17;1.10;;;24.30;99.90;;;;;;5053089;28;20108;-78
2021/07/13 02:41:36;;;;;;;0.90;0.90;;;24.30;99.90;;;;;;5052989;28;20027;-78
2021/07/13 02:44:03;;;;;;;2.38;1.73;;;24.40;99.90;;;;;;5053084;28;20045;-78
2021/07/13 02:46:31;;;;;;;2.25;1.30;;;24.30;99.90;;;;;;5052974;28;20128;-79
2021/07/13 02:48:58;;;;;;;2.38;1.70;;;24.30;99.90;;;;;;5052631;28;20455;-79
2021/07/13 02:51:26;;;;;;;6.72;2.85;;;24.20;99.90;;;;;;5034881;28;20099;-78
2021/07/13 02:53:53;;;;;;;1.00;1.00;;;24.30;99.90;;;;;;5052589;28;20041;-79
2021/07/13 02:56:22;;;;;;;1.25;1.15;;;24.20;99.90;;;;;;5034742;28;20114;-78
2021/07/13 02:58:49;;;;;;;0.85;0.85;;;24.20;99.90;;;;;;5052704;28;20025;-78
2021/07/13 03:01:15;;;;;;;1.38;1.27;;;24.20;99.90;;;;;;5052450;28;20041;-78
2021/07/13 03:03:42;;;;;;;1.10;1.00;;;24.00;99.90;;;;;;5052556;28;20064;-79
2021/07/13 03:06:09;;;;;;;1.42;1.33;;;23.70;99.90;;;;;;5052618;28;20049;-79
2021/07/13 03:08:35;;;;;;;1.63;1.52;;;23.60;99.90;;;;;;5046798;28;20036;-79
2021/07/13 03:11:02;;;;;;;4.25;3.20;;;23.80;99.90;;;;;;5072353;28;20086;-77
2021/07/13 03:13:31;;;;;;;1.08;1.08;;;23.90;99.90;;;;;;5072238;28;20025;-78
2021/07/13 03:15:58;;;;;;;1.92;1.83;;;23.90;99.90;;;;;;5072208;28;20028;-78
2021/07/13 03:18:24;;;;;;;1.65;1.42;;;23.80;99.90;;;;;;5071716;28;20543;-76
2021/07/13 03:20:53;;;;;;;3.47;2.15;;;23.70;99.90;;;;;;5072087;28;20032;-77
2021/07/13 03:23:21;;;;;;;0.90;0.90;;;23.60;99.90;;;;;;5071841;28;20094;-77
2021/07/13 03:25:49;;;;;;;4.00;1.77;;;23.70;99.90;;;;;;5071610;28;20037;-78
2021/07/13 03:28:17;;;;;;;1.67;1.35;;;23.70;99.90;;;;;;5072051;28;20039;-80
2021/07/13 03:30:45;;;;;;;1.20;1.13;;;23.70;99.90;;;;;;5072350;28;20166;-78
2021/07/13 03:33:13;;;;;;;0.90;0.90;;;23.60;99.90;;;;;;5072052;28;20400;-79
2021/07/13 03:35:39;;;;;;;1.80;1.70;;;23.70;99.90;;;;;;5071971;28;20032;-78
2021/07/13 03:38:05;;;;;;;1.23;1.13;;;23.60;99.90;;;;;;5071669;28;20048;-77
2021/07/13 03:40:31;;;;;;;1.13;1.02;;;23.60;99.90;;;;;;5071984;28;20032;-77
2021/07/13 03:42:57;;;;;;;0.80;0.80;;;23.60;99.90;;;;;;5071347;28;20033;-76
2021/07/13 03:45:25;;;;;;;1.20;1.10;;;23.60;99.90;;;;;;5071950;28;20099;-76
2021/07/13 03:47:53;;;;;;;0.80;0.80;;;23.70;99.90;;;;;;5071643;28;20025;-79
2021/07/13 03:50:21;;;;;;;2.80;2.10;;;23.80;99.90;;;;;;5071832;28;20041;-78
2021/07/13 03:52:47;;;;;;;1.70;1.58;;;23.80;99.90;;;;;;5071459;28;20037;-79
2021/07/13 03:55:14;;;;;;;1.50;1.40;;;23.70;99.90;;;;;;5071712;28;20043;-79
2021/07/13 03:57:40;;;;;;;1.20;1.10;;;23.50;99.90;;;;;;5071699;28;20594;-78
2021/07/13 04:00:27;;;;;;;0.85;0.85;;;23.50;99.90;;;;;;5071352;28;20138;-78
2021/07/13 04:02:54;;;;;;;1.25;1.15;;;23.50;99.90;;;;;;5071253;28;20480;-77
2021/07/13 04:05:20;;;;;;;1.27;1.17;;;23.50;99.90;;;;;;5071229;28;20044;-77
2021/07/13 04:07:45;;;;;;;1.52;1.42;;;23.50;99.90;;;;;;5066873;28;20029;-78
2021/07/13 04:10:14;;;;;;;2.20;1.25;;;23.70;99.90;;;;;;5051406;28;20385;-77
2021/07/13 04:12:40;;;;;;;1.80;1.63;;;23.40;99.90;;;;;;5033379;28;20033;-77
2021/07/13 04:15:07;;;;;;;2.20;1.42;;;23.40;99.90;;;;;;5033261;28;20359;-79
2021/07/13 04:17:33;;;;;;;0.82;0.82;;;23.40;99.90;;;;;;5051420;28;20497;-78
2021/07/13 04:19:59;;;;;;;1.35;1.25;;;23.50;99.90;;;;;;5051085;28;20540;-79
2021/07/13 04:22:24;;;;;;;1.10;1.10;;;23.70;99.90;;;;;;5051121;28;20059;-77
2021/07/13 04:24:50;;;;;;;1.65;1.55;;;23.80;99.90;;;;;;5050898;28;20412;-79
2021/07/13 04:27:16;;;;;;;1.40;1.25;;;23.80;99.90;;;;;;5033574;28;20029;-78
2021/07/13 04:29:42;;;;;;;17.25;3.17;;;23.90;99.90;;;;;;5051071;28;20457;-78
2021/07/13 04:32:08;;;;;;;2.25;1.17;;;24.00;99.90;;;;;;5033388;28;20033;-77
2021/07/13 04:34:34;;;;;;;0.93;0.93;;;23.90;99.90;;;;;;5050862;28;20021;-79
2021/07/13 04:37:01;;;;;;;2.63;1.30;;;23.90;99.90;;;;;;5033609;28;20037;-78
2021/07/13 04:39:27;;;;;;;0.77;0.77;;;24.00;99.90;;;;;;5051319;28;20549;-78
2021/07/13 04:41:53;;;;;;;3.00;2.25;;;24.10;99.90;;;;;;5050906;28;20029;-79
2021/07/13 04:44:19;;;;;;;0.70;0.70;;;24.20;99.90;;;;;;5051211;28;20122;-78
2021/07/13 04:46:45;;;;;;;0.85;0.85;;;24.20;99.90;;;;;;5050889;28;20039;-77
2021/07/13 04:49:12;;;;;;;0.90;0.90;;;24.20;99.90;;;;;;5051013;28;20037;-81
2021/07/13 04:51:38;;;;;;;3.50;3.03;;;24.20;99.90;;;;;;5033303;28;20130;-80
2021/07/13 04:54:04;;;;;;;4.38;2.67;;;24.40;99.90;;;;;;5032853;28;20044;-80
2021/07/13 04:56:29;;;;;;;3.83;3.28;;;24.40;99.90;;;;;;5050821;28;20052;-81
2021/07/13 04:58:55;;;;;;;8.35;3.47;;;24.50;99.90;;;;;;5050306;28;20071;-77
2021/07/13 05:01:21;;;;;;;10.30;5.07;;;24.40;99.90;;;;;;5050406;28;20029;-78
2021/07/13 05:03:47;;;;;;;14.43;6.70;;;24.40;99.90;;;;;;5050525;28;20104;-77
2021/07/13 05:06:14;;;;;;;2.75;2.30;;;24.40;99.90;;;;;;5040596;28;20362;-77
2021/07/13 05:08:40;;;;;;;6.18;4.97;;;24.60;99.90;;;;;;5042250;28;20116;-77
2021/07/13 05:11:07;;;;;;;9.38;8.55;;;24.80;99.90;;;;;;5033196;28;20034;-82
2021/07/13 05:13:33;;;;;;;4.53;3.83;;;24.70;99.90;;;;;;5034660;28;20036;-78
2021/07/13 05:15:59;;;;;;;1.45;1.35;;;24.70;99.90;;;;;;5034626;28;20038;-77
2021/07/13 05:18:25;;;;;;;1.58;1.48;;;24.70;99.90;;;;;;5034329;28;20039;-78
2021/07/13 05:20:58;;;;;;;1.33;1.23;;;24.60;99.90;;;;;;5034508;28;20044;-79
2021/07/13 05:23:23;;;;;;;4.03;1.75;;;24.80;99.90;;;;;;5034152;28;20030;-79
2021/07/13 05:25:50;;;;;;;1.05;1.02;;;24.90;99.90;;;;;;5034114;28;20049;-76
2021/07/13 05:28:16;;;;;;;2.67;2.03;;;25.00;99.90;;;;;;5034184;28;20087;-80
2021/07/13 05:30:44;;;;;;;1.38;1.27;;;25.10;99.90;;;;;;5034042;28;20038;-79
2021/07/13 05:33:10;;;;;;;1.60;1.50;;;25.20;99.90;;;;;;5033701;28;20064;-79
2021/07/13 05:35:36;;;;;;;1.20;1.05;;;25.20;99.90;;;;;;5034419;28;20037;-78
2021/07/13 05:38:04;;;;;;;1.88;1.77;;;25.20;99.90;;;;;;5033765;28;20045;-76
2021/07/13 05:40:29;;;;;;;2.25;1.92;;;25.20;99.90;;;;;;5015930;28;20037;-78
2021/07/13 05:42:55;;;;;;;1.88;1.75;;;25.40;99.90;;;;;;5033786;28;20029;-79
2021/07/13 05:45:22;;;;;;;2.15;1.95;;;25.40;99.90;;;;;;5033714;28;20401;-78
2021/07/13 05:47:48;;;;;;;2.88;1.55;;;25.70;99.90;;;;;;5033399;28;20113;-78
2021/07/13 05:50:14;;;;;;;1.15;1.10;;;25.60;99.90;;;;;;5033988;28;20034;-78
2021/07/13 05:52:40;;;;;;;1.70;1.60;;;25.50;99.90;;;;;;5033399;28;20041;-79
2021/07/13 05:55:07;;;;;;;1.95;1.70;;;25.70;99.90;;;;;;5033217;28;20446;-79
2021/07/13 05:57:33;;;;;;;3.92;2.50;;;25.80;99.90;;;;;;5033458;28;20060;-78
2021/07/13 05:59:59;;;;;;;1.95;1.75;;;25.70;99.90;;;;;;5033591;28;20091;-81
2021/07/13 06:02:25;;;;;;;1.63;1.52;;;25.60;99.90;;;;;;5033532;28;20105;-79
2021/07/13 06:04:51;;;;;;;2.03;1.70;;;25.60;99.90;;;;;;5033335;28;20113;-79
2021/07/13 06:07:17;;;;;;;2.28;1.30;;;25.60;99.90;;;;;;5032663;28;20116;-79
2021/07/13 06:09:43;;;;;;;1.38;1.25;;;25.60;99.90;;;;;;5072913;28;20505;-79
2021/07/13 06:12:09;;;;;;;16.88;1.75;;;25.70;99.90;;;;;;5073268;28;20090;-79
2021/07/13 06:14:36;;;;;;;1.70;1.60;;;25.80;99.90;;;;;;5072963;28;20409;-79
2021/07/13 06:17:06;;;;;;;0.70;0.70;;;25.90;99.90;;;;;;5072980;28;20039;-80
2021/07/13 06:19:32;;;;;;;1.90;1.80;;;26.00;99.90;;;;;;5073487;28;20376;-79
2021/07/13 06:21:58;;;;;;;1.55;1.45;;;26.10;99.90;;;;;;5073281;28;20028;-80
2021/07/13 06:24:23;;;;;;;1.15;1.05;;;26.10;99.90;;;;;;5073231;28;20035;-80
2021/07/13 06:26:49;;;;;;;2.65;2.45;;;26.20;99.90;;;;;;5073126;28;20041;-80
2021/07/13 06:29:15;;;;;;;0.73;0.73;;;26.20;99.90;;;;;;5072860;28;20036;-79
2021/07/13 06:31:41;;;;;;;0.75;0.75;;;26.40;99.90;;;;;;5073261;28;20063;-78
2021/07/13 06:34:06;;;;;;;0.95;0.90;;;26.20;99.90;;;;;;5071429;28;20032;-79
2021/07/13 06:36:32;;;;;;;0.75;0.75;;;26.20;99.90;;;;;;5073629;28;20032;-79
2021/07/13 06:38:58;;;;;;;2.38;1.63;;;26.10;99.90;;;;;;5073101;28;20036;-80
2021/07/13 06:41:24;;;;;;;0.80;0.80;;;26.30;99.90;;;;;;5072865;28;20040;-79
2021/07/13 06:43:50;;;;;;;1.23;1.13;;;26.30;99.90;;;;;;5072556;28;20377;-79
2021/07/13 06:46:16;;;;;;;0.77;0.77;;;26.20;99.90;;;;;;5072353;28;20049;-79
2021/07/13 06:48:41;;;;;;;0.90;0.85;;;26.20;99.90;;;;;;5072393;28;20032;-79
2021/07/13 06:51:07;;;;;;;0.98;0.98;;;26.10;99.90;;;;;;5073254;28;20435;-80
2021/07/13 06:53:33;;;;;;;1.45;0.82;;;26.10;99.90;;;;;;5054698;28;20492;-79
2021/07/13 06:55:58;;;;;;;1.48;1.13;;;26.20;99.90;;;;;;5072559;28;20115;-78
2021/07/13 06:58:24;;;;;;;1.02;0.93;;;26.20;99.90;;;;;;5071957;28;20063;-78
2021/07/13 07:00:50;;;;;;;8.30;1.42;;;26.40;99.90;;;;;;5072764;28;20032;-79
2021/07/13 07:03:15;;;;;;;0.93;0.93;;;26.30;99.90;;;;;;5072060;28;20468;-80
2021/07/13 07:05:42;;;;;;;0.82;0.75;;;26.30;99.90;;;;;;5071943;28;20045;-79
2021/07/13 07:08:08;;;;;;;1.35;1.25;;;26.50;99.80;;;;;;5066079;28;20065;-78
2021/07/13 07:10:35;;;;;;;2.17;1.33;;;26.50;99.90;;;;;;5051961;28;20060;-80
2021/07/13 07:13:01;;;;;;;0.98;0.98;;;26.70;99.90;;;;;;5034016;28;20033;-78
2021/07/13 07:15:28;;;;;;;0.57;0.57;;;26.80;99.30;;;;;;5052021;28;20037;-79
2021/07/13 07:17:55;;;;;;;1.65;1.50;;;26.80;98.60;;;;;;5051712;28;20393;-77
2021/07/13 07:20:26;;;;;;;0.65;0.65;;;27.00;98.50;;;;;;5051858;28;20381;-79
2021/07/13 07:22:53;;;;;;;0.85;0.82;;;27.00;98.60;;;;;;5051731;28;20033;-78
2021/07/13 07:25:20;;;;;;;5.90;1.20;;;26.90;98.80;;;;;;5051577;28;20033;-78
2021/07/13 07:27:47;;;;;;;1.00;0.90;;;26.90;98.50;;;;;;5051427;28;20108;-79
2021/07/13 07:30:15;;;;;;;1.10;1.02;;;27.00;98.40;;;;;;5051983;28;20021;-78
2021/07/13 07:32:41;;;;;;;0.63;0.63;;;27.20;98.30;;;;;;5051866;28;20020;-77
2021/07/13 07:35:08;;;;;;;1.10;0.90;;;27.30;97.90;;;;;;5052124;28;20033;-78
2021/07/13 07:37:36;;;;;;;1.00;0.88;;;27.30;97.30;;;;;;5051923;28;20064;-78
2021/07/13 07:40:03;;;;;;;1.25;1.15;;;27.30;97.80;;;;;;5034059;28;20108;-79
2021/07/13 07:42:28;;;;;;;1.55;1.45;;;27.40;97.10;;;;;;5051324;28;20041;-79
2021/07/13 07:44:54;;;;;;;1.60;1.48;;;27.30;97.10;;;;;;5050694;28;20037;-78
2021/07/13 07:47:20;;;;;;;1.00;1.00;;;27.00;98.40;;;;;;5051367;28;20481;-79
2021/07/13 07:49:46;;;;;;;0.82;0.82;;;27.00;97.70;;;;;;5033437;28;20475;-80
2021/07/13 07:52:11;;;;;;;2.70;1.23;;;27.10;97.40;;;;;;5051850;28;20128;-80
2021/07/13 07:54:37;;;;;;;1.10;1.00;;;27.20;97.40;;;;;;5051135;28;20029;-80
2021/07/13 07:57:03;;;;;;;1.35;1.02;;;27.30;97.20;;;;;;5051125;28;20512;-79
2021/07/13 07:59:29;;;;;;;1.55;1.20;;;27.10;97.10;;;;;;5051595;28;20469;-79
2021/07/13 08:01:54;;;;;;;1.30;1.20;;;27.20;96.40;;;;;;5051406;28;20060;-80
2021/07/13 08:04:20;;;;;;;3.70;1.33;;;27.40;96.30;;;;;;5051200;28;20025;-79
2021/07/13 08:06:46;;;;;;;1.13;1.02;;;27.60;96.30;;;;;;5051800;28;20068;-79
2021/07/13 08:09:11;;;;;;;1.88;1.70;;;27.70;95.30;;;;;;5064517;28;20040;-79
2021/07/13 08:11:38;;;;;;;1.60;1.25;;;27.70;95.70;;;;;;5071151;28;20086;-79
2021/07/13 08:14:05;;;;;;;1.70;0.98;;;27.80;95.80;;;;;;5053412;28;20369;-79
2021/07/13 08:16:40;;;;;;;1.77;1.33;;;27.90;95.50;;;;;;5071347;28;20032;-78
2021/07/13 08:19:07;;;;;;;0.95;0.90;;;28.00;95.30;;;;;;5071089;28;20067;-79
2021/07/13 08:21:33;;;;;;;0.65;0.65;;;28.00;95.10;;;;;;5071737;28;20207;-79
2021/07/13 08:24:00;;;;;;;0.82;0.80;;;28.10;94.70;;;;;;5070894;28;20032;-79
2021/07/13 08:26:26;;;;;;;2.65;1.17;;;28.00;94.60;;;;;;5071060;28;20045;-79
2021/07/13 08:28:52;;;;;;;1.48;1.38;;;28.10;94.70;;;;;;5052947;28;20028;-79
2021/07/13 08:31:18;;;;;;;0.73;0.73;;;28.30;94.30;;;;;;5053238;28;20174;-79
2021/07/13 08:33:43;;;;;;;0.93;0.93;;;28.20;93.40;;;;;;5052991;28;20178;-79
2021/07/13 08:36:09;;;;;;;0.63;0.63;;;28.20;93.30;;;;;;5071356;28;20468;-79
2021/07/13 08:38:35;;;;;;;0.57;0.57;;;28.30;93.40;;;;;;5071165;28;20029;-79
2021/07/13 08:41:01;;;;;;;3.00;1.42;;;28.40;93.30;;;;;;5071075;28;20079;-79
2021/07/13 08:43:28;;;;;;;0.75;0.75;;;28.50;93.30;;;;;;5070863;28;20064;-79
2021/07/13 08:45:55;;;;;;;0.75;0.75;;;28.50;93.20;;;;;;5055621;28;20036;-81
2021/07/13 08:48:23;;;;;;;1.05;0.70;;;28.30;93.30;;;;;;5075022;28;20372;-79
2021/07/13 08:50:57;;;;;;;0.70;0.70;;;28.40;93.00;;;;;;5075161;28;20071;-78
2021/07/13 08:53:24;;;;;;;0.50;0.50;;;28.60;92.40;;;;;;5074783;28;20376;-78
2021/07/13 08:55:53;;;;;;;0.98;0.88;;;28.60;92.30;;;;;;5074908;28;20380;-78
2021/07/13 08:58:18;;;;;;;0.85;0.80;;;28.60;91.50;;;;;;5074681;28;20025;-78
2021/07/13 09:00:44;;;;;;;2.05;1.85;;;28.50;91.40;;;;;;5074717;28;20032;-78
2021/07/13 09:03:13;;;;;;;0.77;0.60;;;28.60;91.10;;;;;;5074196;28;20033;-79
2021/07/13 09:05:49;;;;;;;0.93;0.88;;;28.80;91.10;;;;;;5074654;28;20036;-79
2021/07/13 09:08:26;;;;;;;0.77;0.65;;;28.90;91.30;;;;;;5070797;28;20500;-78
2021/07/13 09:11:06;;;;;;;1.40;0.90;;;29.00;90.90;;;;;;5054601;28;20362;-78
2021/07/13 09:13:39;;;;;;;0.70;0.70;;;29.20;90.50;;;;;;5054893;28;20029;-79
2021/07/13 09:16:07;;;;;;;0.82;0.75;;;29.30;90.30;;;;;;5036154;28;20123;-79
2021/07/13 09:18:38;;;;;;;1.67;0.93;;;29.40;89.60;;;;;;5054600;28;20029;-78
2021/07/13 09:21:11;;;;;;;1.45;1.08;;;30.00;87.50;;;;;;5054631;28;20052;-78
2021/07/13 09:24:11;;;;;;;0.60;0.60;;;30.20;87.00;;;;;;5035888;28;20076;-79
2021/07/13 09:26:57;;;;;;;0.77;0.77;;;30.60;86.30;;;;;;5053981;28;20041;-79
2021/07/13 09:29:31;;;;;;;0.77;0.77;;;30.70;85.10;;;;;;5054350;28;20112;-78
2021/07/13 09:32:26;;;;;;;0.90;0.82;;;30.60;84.90;;;;;;5054136;28;20389;-77
2021/07/13 09:35:03;;;;;;;0.80;0.63;;;30.70;84.70;;;;;;5036313;28;20055;-79
2021/07/13 09:37:30;;;;;;;0.40;0.40;;;30.90;82.70;;;;;;5054327;28;20045;-77
2021/07/13 09:40:00;;;;;;;0.65;0.57;;;31.00;83.90;;;;;;5036422;28;20350;-78
2021/07/13 09:42:28;;;;;;;0.55;0.55;;;31.20;82.60;;;;;;5053874;28;20037;-79
2021/07/13 09:45:24;;;;;;;3.08;0.80;;;30.90;81.00;;;;;;5053961;28;20128;-78
2021/07/13 09:47:55;;;;;;;1.65;0.47;;;30.70;80.80;;;;;;5053398;28;20033;-79
2021/07/13 09:50:44;;;;;;;2.17;1.23;;;30.80;80.10;;;;;;5054293;28;20036;-76
2021/07/13 09:53:17;;;;;;;0.55;0.55;;;30.90;79.10;;;;;;5053819;28;20041;-77
2021/07/13 09:55:45;;;;;;;1.52;1.25;;;31.10;78.80;;;;;;5053898;28;20029;-78
2021/07/13 09:58:22;;;;;;;1.17;1.08;;;31.30;79.30;;;;;;5052727;28;20070;-80
2021/07/13 10:00:51;;;;;;;0.82;0.82;;;31.50;79.30;;;;;;5053757;28;20025;-78
2021/07/13 10:03:21;;;;;;;2.10;1.20;;;31.60;78.20;;;;;;5053490;28;20029;-78
2021/07/13 10:05:50;;;;;;;1.00;0.77;;;31.90;77.20;;;;;;5053658;28;20041;-80
2021/07/13 10:08:16;;;;;;;0.73;0.52;;;32.10;77.60;;;;;;5056021;28;20489;-78
2021/07/13 10:10:44;;;;;;;1.52;1.23;;;32.30;76.50;;;;;;5073548;28;20040;-80
2021/07/13 10:13:14;;;;;;;0.60;0.60;;;32.10;76.70;;;;;;5055623;28;20114;-79
2021/07/13 10:15:42;;;;;;;0.45;0.45;;;31.90;75.90;;;;;;5073489;28;20085;-78
2021/07/13 10:18:08;;;;;;;2.17;1.23;;;32.10;75.60;;;;;;5073317;28;20400;-78
2021/07/13 10:20:36;;;;;;;0.30;0.30;;;32.20;73.40;;;;;;5073390;28;20477;-77
2021/07/13 10:23:06;;;;;;;0.65;0.63;;;32.20;74.20;;;;;;5073215;28;20492;-78
2021/07/13 10:25:44;;;;;;;2.28;0.82;;;32.50;73.80;;;;;;5054905;28;20045;-79
2021/07/13 10:28:11;;;;;;;0.88;0.82;;;32.60;75.00;;;;;;5054991;28;20036;-78
2021/07/13 10:30:43;;;;;;;1.75;0.93;;;32.80;72.30;;;;;;5073628;28;20043;-78
2021/07/13 10:33:36;;;;;;;1.08;0.98;;;33.00;72.80;;;;;;5072871;28;20025;-78
2021/07/13 10:36:34;;;;;;;4.10;1.00;;;33.00;70.80;;;;;;5069628;28;20040;-78
2021/07/13 10:39:28;;;;;;;0.60;0.40;;;32.80;70.10;;;;;;5073060;28;20037;-78
2021/07/13 10:41:56;;;;;;;0.85;0.77;;;32.80;69.70;;;;;;5072948;28;20440;-78
2021/07/13 10:44:43;;;;;;;1.30;1.20;;;33.00;69.40;;;;;;5072121;28;20032;-77
2021/07/13 10:47:24;;;;;;;0.40;0.40;;;33.10;67.80;;;;;;5072806;28;20044;-78
2021/07/13 10:50:35;;;;;;;1.00;0.70;;;33.10;68.20;;;;;;5054504;28;20094;-79
2021/07/13 10:53:02;;;;;;;1.02;0.88;;;33.20;67.60;;;;;;5067092;28;20072;-79
2021/07/13 10:55:31;;;;;;;0.80;0.57;;;33.20;67.60;;;;;;5054424;28;20036;-78
2021/07/13 10:58:09;;;;;;;7.75;0.98;;;33.50;65.80;;;;;;5054429;28;20076;-78
2021/07/13 11:00:50;;;;;;;1.55;0.85;;;33.60;64.10;;;;;;5072644;28;20036;-78
2021/07/13 11:03:31;;;;;;;0.38;0.38;;;33.80;62.70;;;;;;5072174;28;20500;-80
2021/07/13 11:05:58;;;;;;;0.30;0.30;;;34.00;63.30;;;;;;5054547;28;20044;-78
2021/07/13 11:08:39;;;;;;;0.73;0.70;;;34.10;62.80;;;;;;5070183;28;20115;-77
2021/07/13 11:11:08;;;;;;;1.15;0.88;;;34.10;63.10;;;;;;5052683;28;20044;-78
2021/07/13 11:13:34;;;;;;;0.95;0.68;;;33.90;62.70;;;;;;5034475;28;20029;-78
2021/07/13 11:16:01;;;;;;;1.60;1.00;;;34.10;62.10;;;;;;5051974;28;20397;-78
2021/07/13 11:18:30;;;;;;;0.45;0.45;;;34.00;61.90;;;;;;5052443;28;20079;-78
2021/07/13 11:21:23;;;;;;;0.57;0.57;;;34.00;60.60;;;;;;5052647;28;20028;-79
2021/07/13 11:23:51;;;;;;;0.47;0.47;;;34.20;61.30;;;;;;5034319;28;20115;-80
2021/07/13 11:26:20;;;;;;;1.40;0.95;;;34.20;59.90;;;;;;5033962;28;20052;-79
2021/07/13 11:28:54;;;;;;;0.45;0.45;;;34.30;60.60;;;;;;5051824;28;20029;-79
2021/07/13 11:31:35;;;;;;;1.55;0.95;;;34.50;59.70;;;;;;5052170;28;20028;-78
2021/07/13 11:34:02;;;;;;;0.70;0.70;;;34.50;59.00;;;;;;5051644;28;20349;-79
2021/07/13 11:36:31;;;;;;;1.20;1.10;;;34.60;59.10;;;;;;5052609;28;20044;-79
2021/07/13 11:38:58;;;;;;;1.52;1.15;;;34.50;59.10;;;;;;5051842;28;20389;-78
2021/07/13 11:41:26;;;;;;;0.25;0.25;;;34.50;59.00;;;;;;5051821;28;20033;-78
2021/07/13 11:43:57;;;;;;;0.57;0.57;;;34.50;59.50;;;;;;5051446;28;20033;-78
2021/07/13 11:46:25;;;;;;;1.85;1.05;;;34.50;58.40;;;;;;5051776;28;20029;-78
2021/07/13 11:49:15;;;;;;;0.80;0.73;;;34.70;59.40;;;;;;5051623;28;20343;-78
2021/07/13 11:51:50;;;;;;;1.50;0.98;;;34.30;58.10;;;;;;5051941;28;20464;-79
2021/07/13 11:54:20;;;;;;;0.95;0.55;;;34.70;58.40;;;;;;5051616;28;20076;-78
2021/07/13 11:56:53;;;;;;;0.82;0.40;;;34.90;58.10;;;;;;5051582;28;20048;-79
2021/07/13 11:59:21;;;;;;;0.57;0.45;;;35.00;57.70;;;;;;5051096;28;20102;-77
2021/07/13 12:01:53;;;;;;;0.50;0.50;;;35.30;58.40;;;;;;5051471;28;20021;-77
2021/07/13 12:04:24;;;;;;;0.95;0.57;;;35.50;58.00;;;;;;5051313;28;20037;-78
2021/07/13 12:06:57;;;;;;;0.50;0.50;;;35.30;56.20;;;;;;5051467;28;20511;-77
2021/07/13 12:09:28;;;;;;;1.45;0.95;;;35.40;56.10;;;;;;5060077;28;20029;-78
2021/07/13 12:12:06;;;;;;;0.65;0.43;;;35.30;56.90;;;;;;5071228;28;20472;-78
2021/07/13 12:14:32;;;;;;;0.82;0.80;;;35.40;56.90;;;;;;5071325;28;20051;-78
2021/07/13 12:16:58;;;;;;;0.77;0.47;;;35.60;57.00;;;;;;5071259;28;20425;-76
2021/07/13 12:19:27;;;;;;;0.52;0.52;;;35.50;55.50;;;;;;5071101;28;20032;-78
2021/07/13 12:21:56;;;;;;;0.60;0.40;;;35.50;55.90;;;;;;5071751;28;20124;-78
2021/07/13 12:24:47;;;;;;;0.70;0.60;;;35.70;55.40;;;;;;5070713;28;20476;-78
2021/07/13 12:27:16;;;;;;;0.55;0.50;;;35.70;55.30;;;;;;5071745;28;20427;-77
2021/07/13 12:29:43;;;;;;;1.00;0.40;;;35.50;54.40;;;;;;5070544;28;20036;-78
2021/07/13 12:32:17;;;;;;;0.30;0.30;;;35.50;54.50;;;;;;5071161;28;20035;-78
2021/07/13 12:34:45;;;;;;;0.30;0.30;;;35.50;54.50;;;;;;5071041;28;20063;-80
2021/07/13 12:37:12;;;;;;;0.55;0.55;;;35.30;54.00;;;;;;5071220;28;20128;-79
2021/07/13 12:39:51;;;;;;;1.33;0.77;;;35.40;54.20;;;;;;5070750;28;20107;-78
2021/07/13 12:42:23;;;;;;;0.82;0.65;;;35.20;54.30;;;;;;5071207;28;20032;-79
2021/07/13 12:44:55;;;;;;;0.30;0.30;;;35.10;54.10;;;;;;5070830;28;20393;-79
2021/07/13 12:47:24;;;;;;;0.63;0.60;;;35.30;53.90;;;;;;5071177;28;20119;-78
2021/07/13 12:50:12;;;;;;;1.23;0.90;;;35.50;54.00;;;;;;5052948;28;20028;-78
2021/07/13 12:52:39;;;;;;;0.30;0.30;;;35.80;54.40;;;;;;5053375;28;20488;-79
2021/07/13 12:55:13;;;;;;;1.02;0.65;;;36.10;54.00;;;;;;5053236;28;20029;-78
2021/07/13 12:57:48;;;;;;;0.52;0.52;;;36.20;54.60;;;;;;5070985;28;20051;-78